Time;durP1;ratioP1;P1;durP2;ratioP2;P2;SDS_P1;SDS_P2;PMS_P1;PMS_P2;Temp;Humidity;BMP_temperature;BMP_pressure;BME280_temperature;BME280_humidity;BME280_pressure;Samples;Min_cycle;Max_cycle;Signal;HPM_P1;HPM_P2
2022/06/23 00:01:28;;;;;;;6.53;5.93;;;;;;;;;;4817688;29;20751;-79
2022/06/23 00:03:56;;;;;;;6.97;6.30;;;;;;;;;;4823555;29;20244;-77
2022/06/23 00:06:24;;;;;;;7.78;6.22;;;;;;;;;;4825695;29;20058;-81
2022/06/23 00:08:53;;;;;;;7.50;6.80;;;;;;;;;;4823596;29;20083;-78
2022/06/23 00:11:21;;;;;;;8.15;6.85;;;;;;;;;;4818072;29;20060;-80
2022/06/23 00:13:49;;;;;;;7.95;7.20;;;;;;;;;;4815173;29;20057;-78
2022/06/23 00:16:25;;;;;;;6.50;5.63;;;;;;;;;;4826174;29;20550;-79
2022/06/23 00:18:53;;;;;;;9.43;7.15;;;;;;;;;;4826201;29;20153;-79
2022/06/23 00:21:23;;;;;;;16.45;7.85;;;;;;;;;;4818856;29;20530;-76
2022/06/23 00:23:55;;;;;;;9.32;7.53;;;;;;;;;;4801363;29;20057;-77
2022/06/23 00:26:27;;;;;;;9.77;7.97;;;;;;;;;;4803879;29;20523;-76
2022/06/23 00:29:02;;;;;;;8.85;7.47;;;;;;;;;;4810312;29;20098;-77
2022/06/23 00:31:40;;;;;;;8.52;7.80;;;;;;;;;;4841999;29;20261;-78
2022/06/23 00:34:18;;;;;;;8.57;7.70;;;;;;;;;;4800129;29;20102;-79
2022/06/23 00:36:51;;;;;;;8.35;7.50;;;;;;;;;;4815695;29;20440;-76
2022/06/23 00:39:39;;;;;;;8.70;7.80;;;;;;;;;;4820427;29;20074;-77
2022/06/23 00:42:27;;;;;;;10.02;8.00;;;;;;;;;;4833268;29;20058;-77
2022/06/23 00:44:58;;;;;;;8.07;7.38;;;;;;;;;;4820863;29;20081;-76
2022/06/23 00:47:29;;;;;;;8.30;7.50;;;;;;;;;;4810253;29;20078;-76
2022/06/23 00:50:15;;;;;;;8.40;7.60;;;;;;;;;;4804495;29;20074;-79
2022/06/23 00:52:45;;;;;;;8.35;7.65;;;;;;;;;;4820523;29;20130;-77
2022/06/23 00:55:25;;;;;;;9.05;7.63;;;;;;;;;;4804034;29;20142;-77
2022/06/23 00:57:57;;;;;;;8.68;7.88;;;;;;;;;;4830000;29;20049;-77
2022/06/23 01:00:31;;;;;;;10.70;8.38;;;;;;;;;;4842828;29;20109;-78
2022/06/23 01:03:12;;;;;;;9.15;8.20;;;;;;;;;;4823494;29;20058;-77
2022/06/23 01:05:43;;;;;;;8.50;7.68;;;;;;;;;;4819745;29;20115;-78
2022/06/23 01:08:19;;;;;;;8.93;7.82;;;;;;;;;;4820542;29;20050;-77
2022/06/23 01:10:52;;;;;;;9.82;8.80;;;;;;;;;;4825295;29;20046;-77
2022/06/23 01:13:29;;;;;;;9.40;8.55;;;;;;;;;;4821759;29;20046;-77
2022/06/23 01:16:16;;;;;;;9.25;8.45;;;;;;;;;;4822228;29;20054;-77
2022/06/23 01:18:47;;;;;;;9.90;8.98;;;;;;;;;;4821148;29;20097;-79
2022/06/23 01:21:15;;;;;;;10.05;9.15;;;;;;;;;;4825158;29;20058;-77
2022/06/23 01:24:01;;;;;;;10.57;8.55;;;;;;;;;;4801570;29;20077;-79
2022/06/23 01:26:37;;;;;;;9.63;8.68;;;;;;;;;;4821664;29;20046;-79
2022/06/23 01:29:10;;;;;;;8.98;8.18;;;;;;;;;;4804452;29;20058;-79
2022/06/23 01:31:42;;;;;;;9.10;8.23;;;;;;;;;;4803966;29;20122;-76
2022/06/23 01:34:22;;;;;;;8.82;7.93;;;;;;;;;;4818036;29;20073;-76
2022/06/23 01:36:55;;;;;;;9.43;8.52;;;;;;;;;;4837309;29;20050;-77
2022/06/23 01:39:29;;;;;;;9.52;8.82;;;;;;;;;;4837199;29;20152;-77
2022/06/23 01:42:02;;;;;;;8.93;8.05;;;;;;;;;;4804712;29;20093;-77
2022/06/23 01:44:29;;;;;;;9.25;8.35;;;;;;;;;;4837734;29;20102;-79
2022/06/23 01:47:00;;;;;;;9.65;8.57;;;;;;;;;;4820875;29;20544;-77
2022/06/23 01:49:41;;;;;;;11.02;9.07;;;;;;;;;;4827361;29;20094;-78
2022/06/23 01:52:10;;;;;;;9.65;8.23;;;;;;;;;;4819743;29;20053;-77
2022/06/23 01:54:39;;;;;;;10.00;9.15;;;;;;;;;;4820797;29;20465;-78
2022/06/23 01:57:06;;;;;;;9.60;8.70;;;;;;;;;;4820839;29;20456;-79
2022/06/23 01:59:43;;;;;;;9.55;8.75;;;;;;;;;;4820388;29;20054;-77
2022/06/23 02:02:11;;;;;;;10.07;9.18;;;;;;;;;;4835028;29;20150;-78
2022/06/23 02:04:59;;;;;;;8.68;7.88;;;;;;;;;;4844893;29;20125;-78
2022/06/23 02:07:31;;;;;;;8.95;7.93;;;;;;;;;;4843906;29;20434;-77
2022/06/23 02:10:02;;;;;;;9.35;8.55;;;;;;;;;;4821419;29;20157;-76
2022/06/23 02:12:34;;;;;;;9.95;9.13;;;;;;;;;;4803749;29;20414;-77
2022/06/23 02:15:15;;;;;;;10.13;8.98;;;;;;;;;;4819264;29;20787;-78
2022/06/23 02:17:48;;;;;;;9.63;8.63;;;;;;;;;;4816960;29;20050;-78
2022/06/23 02:20:18;;;;;;;9.60;8.80;;;;;;;;;;4818009;29;20053;-77
2022/06/23 02:22:47;;;;;;;10.73;9.63;;;;;;;;;;4838526;29;20057;-78
2022/06/23 02:25:26;;;;;;;9.07;8.27;;;;;;;;;;4820275;29;20089;-77
2022/06/23 02:27:59;;;;;;;9.07;8.23;;;;;;;;;;4820460;29;20106;-78
2022/06/23 02:30:39;;;;;;;9.82;7.82;;;;;;;;;;4828424;29;20045;-77
2022/06/23 02:33:16;;;;;;;10.02;7.05;;;;;;;;;;4841187;29;20057;-78
2022/06/23 02:35:55;;;;;;;9.35;8.50;;;;;;;;;;4827437;29;20130;-77
2022/06/23 02:38:41;;;;;;;8.88;8.07;;;;;;;;;;4812520;29;20057;-77
2022/06/23 02:41:14;;;;;;;8.70;7.88;;;;;;;;;;4815573;29;20058;-77
2022/06/23 02:43:47;;;;;;;8.70;7.85;;;;;;;;;;4827559;29;20133;-79
2022/06/23 02:46:32;;;;;;;9.07;8.18;;;;;;;;;;4789250;29;20533;-79
2022/06/23 02:49:38;;;;;;;10.70;8.20;;;;;;;;;;4841214;29;20540;-77
2022/06/23 02:52:13;;;;;;;11.00;8.88;;;;;;;;;;4766505;30;20533;-80
2022/06/23 02:54:40;;;;;;;9.68;8.82;;;;;;;;;;4763636;29;20432;-79
2022/06/23 02:57:26;;;;;;;9.55;8.75;;;;;;;;;;4803267;29;20058;-77
2022/06/23 02:59:59;;;;;;;10.63;8.20;;;;;;;;;;4827699;29;20060;-78
2022/06/23 03:02:32;;;;;;;9.90;8.50;;;;;;;;;;4838320;29;20045;-78
2022/06/23 03:05:02;;;;;;;9.93;8.80;;;;;;;;;;4838047;29;20069;-78
2022/06/23 03:07:36;;;;;;;9.02;8.23;;;;;;;;;;4835938;29;20057;-80
2022/06/23 03:10:22;;;;;;;10.18;8.82;;;;;;;;;;4830239;29;20133;-79
2022/06/23 03:12:51;;;;;;;9.48;8.45;;;;;;;;;;4849099;29;20049;-80
2022/06/23 03:15:26;;;;;;;9.40;8.50;;;;;;;;;;4836068;29;20069;-78
2022/06/23 03:17:57;;;;;;;8.93;8.23;;;;;;;;;;4839126;29;20042;-80
2022/06/23 03:20:24;;;;;;;12.05;8.75;;;;;;;;;;4853104;29;20034;-78
2022/06/23 03:22:55;;;;;;;9.45;8.38;;;;;;;;;;4823406;29;20540;-78
2022/06/23 03:25:44;;;;;;;12.25;8.07;;;;;;;;;;4847860;29;20061;-78
2022/06/23 03:28:14;;;;;;;8.93;7.72;;;;;;;;;;4849655;29;20123;-80
2022/06/23 03:30:44;;;;;;;9.57;8.20;;;;;;;;;;4843378;29;20049;-77
2022/06/23 03:33:18;;;;;;;8.30;7.57;;;;;;;;;;4826078;29;20045;-79
2022/06/23 03:35:52;;;;;;;8.70;7.85;;;;;;;;;;4823427;29;20102;-78
2022/06/23 03:41:38;;;;;;;9.05;8.13;;;;;;;;;;4819761;29;20486;-80
2022/06/23 03:44:10;;;;;;;8.20;7.50;;;;;;;;;;4809515;29;20114;-79
2022/06/23 03:46:41;;;;;;;8.63;7.93;;;;;;;;;;4818100;29;20114;-80
2022/06/23 03:49:14;;;;;;;9.68;7.75;;;;;;;;;;4822449;29;20076;-78
2022/06/23 03:51:49;;;;;;;8.75;7.90;;;;;;;;;;4828563;29;20133;-78
2022/06/23 03:54:22;;;;;;;8.85;8.07;;;;;;;;;;4832428;29;20045;-80
2022/06/23 03:56:58;;;;;;;8.95;7.85;;;;;;;;;;4836623;29;20574;-78
2022/06/23 03:59:37;;;;;;;7.38;6.75;;;;;;;;;;4809877;29;20379;-80
2022/06/23 04:02:11;;;;;;;8.90;8.00;;;;;;;;;;4822417;29;20053;-79
2022/06/23 04:04:42;;;;;;;8.18;7.47;;;;;;;;;;4845345;29;20081;-77
2022/06/23 04:07:28;;;;;;;9.23;8.43;;;;;;;;;;4831400;29;21211;-78
2022/06/23 04:10:01;;;;;;;8.90;8.10;;;;;;;;;;4821557;29;20145;-78
2022/06/23 04:12:51;;;;;;;10.70;8.73;;;;;;;;;;4834024;29;20521;-78
2022/06/23 04:15:36;;;;;;;10.93;8.40;;;;;;;;;;4835227;29;20051;-77
2022/06/23 04:18:09;;;;;;;9.85;8.18;;;;;;;;;;4806881;29;20830;-78
2022/06/23 04:20:44;;;;;;;10.75;9.63;;;;;;;;;;4833898;29;20082;-77
2022/06/23 04:23:11;;;;;;;10.20;9.23;;;;;;;;;;4809949;29;20050;-80
2022/06/23 04:25:51;;;;;;;14.95;10.20;;;;;;;;;;4819116;29;20587;-78
2022/06/23 04:28:26;;;;;;;11.27;9.88;;;;;;;;;;4806327;29;20081;-79
2022/06/23 04:30:56;;;;;;;10.95;9.95;;;;;;;;;;4825804;29;20065;-80
2022/06/23 04:33:24;;;;;;;12.18;9.57;;;;;;;;;;4811271;29;20136;-78
2022/06/23 04:35:55;;;;;;;10.38;9.30;;;;;;;;;;4810192;29;20054;-78
2022/06/23 04:38:23;;;;;;;10.98;9.15;;;;;;;;;;4822280;29;20457;-79
2022/06/23 04:41:14;;;;;;;10.48;9.48;;;;;;;;;;4808452;29;20051;-81
2022/06/23 04:44:00;;;;;;;12.60;9.30;;;;;;;;;;4819757;29;20523;-78
2022/06/23 04:46:27;;;;;;;10.98;9.98;;;;;;;;;;4821105;29;20566;-79
2022/06/23 04:49:07;;;;;;;10.55;9.52;;;;;;;;;;4819525;29;20073;-81
2022/06/23 04:51:37;;;;;;;12.65;11.40;;;;;;;;;;4836485;29;20056;-78
2022/06/23 04:54:11;;;;;;;16.73;10.68;;;;;;;;;;4820278;29;20522;-78
2022/06/23 04:56:38;;;;;;;13.95;10.02;;;;;;;;;;4830425;29;20502;-77
2022/06/23 04:59:24;;;;;;;11.38;10.27;;;;;;;;;;4840423;29;20137;-78
2022/06/23 05:01:54;;;;;;;11.60;10.52;;;;;;;;;;4832322;29;20045;-81
2022/06/23 05:04:26;;;;;;;12.07;10.77;;;;;;;;;;4834553;29;20054;-80
2022/06/23 05:06:56;;;;;;;11.88;10.70;;;;;;;;;;4823001;29;20061;-79
2022/06/23 05:09:26;;;;;;;12.73;10.88;;;;;;;;;;4835405;29;20046;-79
2022/06/23 05:11:58;;;;;;;13.25;11.00;;;;;;;;;;4845453;29;20053;-78
2022/06/23 05:14:32;;;;;;;12.02;10.93;;;;;;;;;;4827509;29;20507;-79
2022/06/23 05:17:05;;;;;;;11.82;10.75;;;;;;;;;;4813486;29;20493;-81
2022/06/23 05:19:36;;;;;;;13.15;11.95;;;;;;;;;;4819291;29;20046;-78
2022/06/23 05:22:13;;;;;;;11.77;10.73;;;;;;;;;;4816861;29;20141;-79
2022/06/23 05:24:42;;;;;;;12.05;11.05;;;;;;;;;;4837981;29;20110;-81
2022/06/23 05:27:18;;;;;;;12.07;11.05;;;;;;;;;;4815319;29;20778;-82
2022/06/23 05:30:04;;;;;;;13.02;11.70;;;;;;;;;;4853689;29;20046;-79
2022/06/23 05:32:35;;;;;;;12.10;10.85;;;;;;;;;;4807073;29;20050;-79
2022/06/23 05:35:21;;;;;;;12.23;10.60;;;;;;;;;;4837482;29;20068;-79
2022/06/23 05:38:00;;;;;;;12.52;11.32;;;;;;;;;;4821657;29;20400;-78
2022/06/23 05:40:35;;;;;;;12.30;11.10;;;;;;;;;;4843364;24;20683;-76
2022/06/23 05:43:02;;;;;;;12.15;11.15;;;;;;;;;;4842958;29;20148;-76
2022/06/23 05:45:30;;;;;;;12.00;10.80;;;;;;;;;;4865059;29;20283;-75
2022/06/23 05:47:58;;;;;;;14.55;12.20;;;;;;;;;;4845846;29;20124;-77
2022/06/23 05:50:29;;;;;;;12.30;11.15;;;;;;;;;;4834668;29;20056;-76
2022/06/23 05:53:00;;;;;;;12.50;11.17;;;;;;;;;;4842299;29;20061;-76
2022/06/23 05:55:42;;;;;;;12.68;11.50;;;;;;;;;;4823781;29;20342;-77
2022/06/23 05:58:12;;;;;;;11.85;10.82;;;;;;;;;;4830587;29;20388;-77
2022/06/23 06:00:49;;;;;;;12.35;11.15;;;;;;;;;;4829623;29;20542;-76
2022/06/23 06:03:16;;;;;;;11.60;10.50;;;;;;;;;;4835868;29;20091;-76
2022/06/23 06:05:46;;;;;;;12.48;11.18;;;;;;;;;;4834501;29;20050;-76
2022/06/23 06:08:13;;;;;;;11.43;10.43;;;;;;;;;;4829775;29;20077;-76
2022/06/23 06:10:41;;;;;;;12.38;11.15;;;;;;;;;;4827104;29;20077;-76
2022/06/23 06:13:14;;;;;;;11.02;10.10;;;;;;;;;;4840123;29;20145;-76
2022/06/23 06:15:44;;;;;;;11.63;10.43;;;;;;;;;;4812008;29;20088;-76
2022/06/23 06:18:27;;;;;;;11.20;10.10;;;;;;;;;;4830532;29;20042;-76
2022/06/23 06:20:55;;;;;;;10.18;9.27;;;;;;;;;;4841304;29;20406;-76
2022/06/23 06:23:23;;;;;;;10.88;9.85;;;;;;;;;;4825427;29;20045;-76
2022/06/23 06:25:51;;;;;;;10.73;9.75;;;;;;;;;;4805415;29;20518;-76
2022/06/23 06:28:20;;;;;;;10.57;9.77;;;;;;;;;;4812719;29;20433;-75
2022/06/23 06:31:01;;;;;;;12.35;10.02;;;;;;;;;;4827605;29;20527;-76
2022/06/23 06:33:33;;;;;;;13.02;10.60;;;;;;;;;;4829878;29;20054;-76
2022/06/23 06:36:01;;;;;;;13.73;11.02;;;;;;;;;;4833385;29;20042;-76
2022/06/23 06:38:30;;;;;;;11.88;10.70;;;;;;;;;;4836862;29;20129;-74
2022/06/23 06:40:59;;;;;;;12.57;11.05;;;;;;;;;;4837747;29;20220;-76
2022/06/23 06:43:29;;;;;;;11.70;10.50;;;;;;;;;;4833523;29;20042;-76
2022/06/23 06:45:58;;;;;;;11.98;10.88;;;;;;;;;;4823809;29;20521;-75
2022/06/23 06:48:31;;;;;;;12.60;10.82;;;;;;;;;;4825695;29;20034;-76
2022/06/23 06:51:03;;;;;;;12.70;11.60;;;;;;;;;;4833061;29;20461;-76
2022/06/23 06:53:33;;;;;;;14.35;12.38;;;;;;;;;;4827959;29;20125;-76
2022/06/23 06:56:19;;;;;;;14.95;13.45;;;;;;;;;;4828803;29;20070;-76
2022/06/23 06:58:51;;;;;;;15.93;14.35;;;;;;;;;;4827425;29;20085;-75
2022/06/23 07:01:20;;;;;;;13.98;12.52;;;;;;;;;;4833176;29;20468;-76
2022/06/23 07:03:49;;;;;;;13.82;12.40;;;;;;;;;;4823324;29;20119;-76
2022/06/23 07:06:21;;;;;;;13.32;11.98;;;;;;;;;;4827869;29;20042;-75
2022/06/23 07:08:52;;;;;;;14.60;13.05;;;;;;;;;;4818870;29;20050;-75
2022/06/23 07:11:34;;;;;;;15.05;12.80;;;;;;;;;;4825241;29;20431;-75
2022/06/23 07:14:03;;;;;;;15.52;14.02;;;;;;;;;;4825456;29;20046;-76
2022/06/23 07:16:38;;;;;;;14.55;13.20;;;;;;;;;;4825491;29;20046;-75
2022/06/23 07:19:19;;;;;;;17.17;15.40;;;;;;;;;;4829738;29;20102;-76
2022/06/23 07:21:55;;;;;;;17.15;15.38;;;;;;;;;;4823243;29;20519;-76
2022/06/23 07:24:49;;;;;;;16.35;14.63;;;;;;;;;;4827596;29;20077;-75
2022/06/23 07:27:20;;;;;;;18.35;13.90;;;;;;;;;;4799942;29;20144;-76
2022/06/23 07:29:57;;;;;;;16.43;14.83;;;;;;;;;;4824279;29;20049;-76
2022/06/23 07:32:50;;;;;;;17.88;16.00;;;;;;;;;;4811343;29;20169;-76
2022/06/23 07:35:37;;;;;;;21.02;16.55;;;;;;;;;;4806542;29;20057;-76
2022/06/23 07:38:17;;;;;;;16.67;14.60;;;;;;;;;;4828575;29;20582;-76
2022/06/23 07:40:54;;;;;;;16.95;15.32;;;;;;;;;;4826512;29;20110;-76
2022/06/23 07:43:40;;;;;;;19.63;15.27;;;;;;;;;;4827255;29;20468;-76
2022/06/23 07:46:07;;;;;;;17.10;15.25;;;;;;;;;;4826242;29;20129;-76
2022/06/23 07:48:36;;;;;;;17.42;15.65;;;;;;;;;;4826920;29;20072;-76
2022/06/23 07:51:05;;;;;;;17.13;15.00;;;;;;;;;;4822470;29;20057;-76
2022/06/23 07:53:41;;;;;;;18.15;16.35;;;;;;;;;;4830660;29;20038;-75
2022/06/23 07:56:12;;;;;;;16.90;15.32;;;;;;;;;;4835698;29;20396;-76
2022/06/23 07:58:42;;;;;;;18.77;16.83;;;;;;;;;;4817433;29;20406;-76
2022/06/23 08:01:28;;;;;;;16.85;15.27;;;;;;;;;;4839505;29;20537;-76
2022/06/23 08:03:58;;;;;;;17.13;15.32;;;;;;;;;;4833033;29;20042;-76
2022/06/23 08:06:29;;;;;;;14.15;12.85;;;;;;;;;;4845199;29;20054;-76
2022/06/23 08:08:58;;;;;;;16.27;14.32;;;;;;;;;;4836363;29;20046;-76
2022/06/23 08:14:34;;;;;;;14.57;13.18;;;;;;;;;;4833463;29;20073;-75
2022/06/23 08:17:04;;;;;;;12.05;10.93;;;;;;;;;;4834589;29;20180;-75
2022/06/23 08:19:40;;;;;;;14.43;11.20;;;;;;;;;;4834074;29;20102;-76
2022/06/23 08:22:13;;;;;;;11.55;10.55;;;;;;;;;;4835401;29;20586;-75
2022/06/23 08:24:42;;;;;;;11.82;10.02;;;;;;;;;;4832757;29;20185;-75
2022/06/23 08:27:30;;;;;;;10.35;9.23;;;;;;;;;;4830227;29;20082;-75
2022/06/23 08:30:02;;;;;;;9.63;8.63;;;;;;;;;;4837979;29;20053;-75
2022/06/23 08:32:30;;;;;;;8.82;8.02;;;;;;;;;;4819911;29;20224;-76
2022/06/23 08:35:01;;;;;;;12.73;9.38;;;;;;;;;;4842920;29;20140;-76
2022/06/23 08:37:32;;;;;;;9.95;8.95;;;;;;;;;;4834963;29;20065;-76
2022/06/23 08:40:04;;;;;;;10.32;9.40;;;;;;;;;;4835060;29;20193;-76
2022/06/23 08:42:42;;;;;;;9.00;8.10;;;;;;;;;;4834077;29;20483;-76
2022/06/23 08:45:24;;;;;;;10.48;8.90;;;;;;;;;;4841576;29;20499;-75
2022/06/23 08:48:05;;;;;;;13.52;9.98;;;;;;;;;;4850426;29;20118;-76
2022/06/23 08:50:41;;;;;;;11.18;8.77;;;;;;;;;;4842937;29;20125;-75
2022/06/23 08:53:28;;;;;;;12.30;8.63;;;;;;;;;;4841230;29;20077;-75
2022/06/23 08:55:59;;;;;;;10.73;8.43;;;;;;;;;;4831347;29;20118;-76
2022/06/23 08:58:56;;;;;;;8.77;7.97;;;;;;;;;;4816968;29;20050;-75
2022/06/23 09:01:44;;;;;;;13.80;9.90;;;;;;;;;;4813597;29;20042;-75
2022/06/23 09:04:11;;;;;;;10.98;9.88;;;;;;;;;;4838259;29;20045;-75
2022/06/23 09:06:48;;;;;;;12.38;9.98;;;;;;;;;;4832842;29;20049;-76
2022/06/23 09:09:28;;;;;;;10.35;8.35;;;;;;;;;;4825470;29;20038;-76
2022/06/23 09:12:08;;;;;;;11.43;8.85;;;;;;;;;;4815922;29;20811;-76
2022/06/23 09:14:45;;;;;;;10.38;9.48;;;;;;;;;;4841288;29;20124;-76
2022/06/23 09:17:31;;;;;;;11.05;9.95;;;;;;;;;;4845991;29;20069;-77
2022/06/23 09:20:13;;;;;;;11.82;10.57;;;;;;;;;;4838445;29;20042;-77
2022/06/23 09:22:53;;;;;;;10.93;9.80;;;;;;;;;;4846058;29;20583;-77
2022/06/23 09:25:33;;;;;;;11.95;10.23;;;;;;;;;;4839034;29;20137;-76
2022/06/23 09:28:00;;;;;;;11.05;9.60;;;;;;;;;;4831926;29;20136;-76
2022/06/23 09:30:27;;;;;;;11.98;9.75;;;;;;;;;;4848141;29;20148;-76
2022/06/23 09:32:55;;;;;;;10.25;9.25;;;;;;;;;;4850844;29;20097;-76
2022/06/23 09:35:29;;;;;;;11.95;9.02;;;;;;;;;;4848308;29;20137;-76
2022/06/23 09:38:02;;;;;;;9.70;8.80;;;;;;;;;;4847545;29;20312;-76
2022/06/23 09:40:33;;;;;;;10.07;9.07;;;;;;;;;;4831311;29;20380;-76
2022/06/23 09:43:19;;;;;;;17.80;9.90;;;;;;;;;;4848250;29;20049;-76
2022/06/23 09:45:58;;;;;;;9.13;8.23;;;;;;;;;;4839542;29;20368;-76
2022/06/23 09:48:26;;;;;;;8.52;7.45;;;;;;;;;;4837793;29;20181;-76
2022/06/23 09:50:57;;;;;;;8.10;7.30;;;;;;;;;;4842683;29;20050;-76
2022/06/23 09:53:33;;;;;;;7.40;6.70;;;;;;;;;;4836746;29;20133;-76
2022/06/23 09:56:21;;;;;;;7.72;6.80;;;;;;;;;;4834393;29;20045;-76
2022/06/23 09:58:55;;;;;;;7.43;6.72;;;;;;;;;;4836354;29;20050;-76
2022/06/23 10:01:31;;;;;;;9.00;7.07;;;;;;;;;;4843798;29;20046;-76
2022/06/23 10:04:16;;;;;;;8.65;7.88;;;;;;;;;;4854651;29;20503;-75
2022/06/23 10:06:58;;;;;;;7.80;7.00;;;;;;;;;;4856362;29;20110;-76
2022/06/23 10:09:26;;;;;;;8.40;6.82;;;;;;;;;;4814570;29;20046;-76
2022/06/23 10:12:13;;;;;;;6.50;5.90;;;;;;;;;;4800980;29;20058;-75
2022/06/23 10:14:50;;;;;;;10.65;6.25;;;;;;;;;;4787288;29;20052;-76
2022/06/23 10:17:29;;;;;;;7.82;6.30;;;;;;;;;;4817625;29;20556;-76
2022/06/23 10:20:12;;;;;;;7.18;6.50;;;;;;;;;;4817280;29;20051;-76
2022/06/23 10:22:58;;;;;;;6.80;5.80;;;;;;;;;;4818145;29;20080;-76
2022/06/23 10:25:46;;;;;;;6.97;5.93;;;;;;;;;;4817371;29;20050;-76
2022/06/23 10:28:32;;;;;;;6.82;5.78;;;;;;;;;;4819426;29;20138;-76
2022/06/23 10:31:05;;;;;;;8.85;5.93;;;;;;;;;;4849864;29;20528;-76
2022/06/23 10:33:51;;;;;;;8.82;5.72;;;;;;;;;;4855076;29;20057;-76
2022/06/23 10:36:27;;;;;;;8.63;5.38;;;;;;;;;;4855041;29;20064;-76
2022/06/23 10:38:54;;;;;;;6.35;5.72;;;;;;;;;;4855523;29;20053;-76
2022/06/23 10:41:29;;;;;;;6.03;5.50;;;;;;;;;;4855459;29;20049;-75
2022/06/23 10:44:19;;;;;;;8.45;5.90;;;;;;;;;;4837544;29;20157;-76
2022/06/23 10:47:05;;;;;;;9.27;5.57;;;;;;;;;;4853746;29;20075;-75
2022/06/23 10:49:42;;;;;;;5.78;5.28;;;;;;;;;;4854796;29;20525;-76
2022/06/23 10:52:12;;;;;;;7.20;5.60;;;;;;;;;;4855781;29;20057;-76
2022/06/23 10:54:58;;;;;;;7.90;5.85;;;;;;;;;;4854237;29;20105;-76
2022/06/23 10:57:32;;;;;;;5.90;4.63;;;;;;;;;;4854116;29;20098;-76
2022/06/23 11:00:08;;;;;;;6.55;4.82;;;;;;;;;;4854911;29;20164;-76
2022/06/23 11:02:51;;;;;;;6.82;5.25;;;;;;;;;;4854263;29;20049;-76
2022/06/23 11:05:25;;;;;;;7.22;4.63;;;;;;;;;;4854376;29;20109;-77
2022/06/23 11:07:58;;;;;;;8.77;4.85;;;;;;;;;;4854579;29;20049;-76
2022/06/23 11:10:49;;;;;;;4.68;4.22;;;;;;;;;;4856059;29;20064;-76
2022/06/23 11:13:22;;;;;;;4.93;4.30;;;;;;;;;;4853389;29;20165;-77
2022/06/23 11:16:01;;;;;;;5.18;4.32;;;;;;;;;;4826706;29;20071;-76
2022/06/23 11:18:38;;;;;;;5.85;4.60;;;;;;;;;;4818602;29;20042;-76
2022/06/23 11:21:15;;;;;;;5.65;4.28;;;;;;;;;;4827760;29;20048;-77
2022/06/23 11:23:58;;;;;;;6.40;4.43;;;;;;;;;;4821707;29;20054;-76
2022/06/23 11:26:28;;;;;;;7.50;4.40;;;;;;;;;;4825498;29;20042;-77
2022/06/23 11:29:18;;;;;;;6.97;5.00;;;;;;;;;;4823520;29;20126;-77
2022/06/23 11:31:54;;;;;;;4.28;3.80;;;;;;;;;;4830920;29;20050;-77
2022/06/23 11:34:21;;;;;;;3.50;3.20;;;;;;;;;;4819782;29;20081;-77
2022/06/23 11:37:08;;;;;;;8.35;4.07;;;;;;;;;;4821924;29;20309;-77
2022/06/23 11:39:48;;;;;;;6.53;3.88;;;;;;;;;;4848719;24;20056;31
2022/06/23 11:42:37;;;;;;;4.55;3.60;;;;;;;;;;4811450;29;20133;-78
2022/06/23 11:45:05;;;;;;;5.50;3.63;;;;;;;;;;4819898;29;20052;-79
2022/06/23 11:47:41;;;;;;;4.65;4.15;;;;;;;;;;4801179;29;20118;-78
2022/06/23 11:50:25;;;;;;;4.57;4.03;;;;;;;;;;4804462;29;20043;-78
2022/06/23 11:52:53;;;;;;;3.67;3.35;;;;;;;;;;4819671;29;20054;-78
2022/06/23 11:55:31;;;;;;;4.70;3.80;;;;;;;;;;4798161;29;20050;-80
2022/06/23 11:57:58;;;;;;;5.97;3.70;;;;;;;;;;4810150;29;20120;-79
2022/06/23 12:00:35;;;;;;;3.90;3.40;;;;;;;;;;4802837;29;20140;-80
2022/06/23 12:03:19;;;;;;;4.00;3.13;;;;;;;;;;4826167;29;20054;-79
2022/06/23 12:06:01;;;;;;;6.57;3.30;;;;;;;;;;4777893;29;20122;-79
2022/06/23 12:08:35;;;;;;;4.43;2.50;;;;;;;;;;4812418;29;20080;-79
2022/06/23 12:11:03;;;;;;;4.55;2.50;;;;;;;;;;4813870;29;20050;-80
2022/06/23 12:13:33;;;;;;;4.90;2.70;;;;;;;;;;4799045;29;20045;-78
2022/06/23 12:16:01;;;;;;;2.63;2.30;;;;;;;;;;4802330;29;20099;-79
2022/06/23 12:18:34;;;;;;;6.95;2.50;;;;;;;;;;4789476;29;20121;-79
2022/06/23 12:21:07;;;;;;;4.93;2.60;;;;;;;;;;4818285;29;20045;-80
2022/06/23 12:23:41;;;;;;;2.97;2.13;;;;;;;;;;4797643;29;20234;-78
2022/06/23 12:26:20;;;;;;;3.63;2.50;;;;;;;;;;4816471;29;20562;-78
2022/06/23 12:28:51;;;;;;;5.22;2.47;;;;;;;;;;4834661;29;20054;-80
2022/06/23 12:31:34;;;;;;;3.63;2.15;;;;;;;;;;4791100;29;20064;-79
2022/06/23 12:34:01;;;;;;;4.85;2.65;;;;;;;;;;4812642;29;20080;-80
2022/06/23 12:36:42;;;;;;;4.35;2.58;;;;;;;;;;4825808;29;20046;-80
2022/06/23 12:39:25;;;;;;;3.28;2.55;;;;;;;;;;4821491;29;20054;-79
2022/06/23 12:41:55;;;;;;;2.95;2.42;;;;;;;;;;4812850;29;20141;-80
2022/06/23 12:44:46;;;;;;;3.70;2.85;;;;;;;;;;4802825;29;20068;-79
2022/06/23 12:47:23;;;;;;;3.13;2.63;;;;;;;;;;4816677;29;20119;-79
2022/06/23 12:50:02;;;;;;;2.47;2.28;;;;;;;;;;4807504;29;20060;-80
2022/06/23 12:52:46;;;;;;;5.43;2.50;;;;;;;;;;4820989;29;20122;-79
2022/06/23 12:55:43;;;;;;;3.28;2.33;;;;;;;;;;4819851;29;20588;-79
2022/06/23 12:58:33;;;;;;;4.82;2.50;;;;;;;;;;4809247;29;20053;-78
2022/06/23 13:01:10;;;;;;;3.28;2.15;;;;;;;;;;4804426;29;20042;-79
2022/06/23 13:03:38;;;;;;;4.05;2.30;;;;;;;;;;4813554;29;20552;-78
2022/06/23 13:06:19;;;;;;;5.13;2.45;;;;;;;;;;4811621;29;20404;-79
2022/06/23 13:09:06;;;;;;;4.03;2.38;;;;;;;;;;4816011;29;20075;-79
2022/06/23 13:11:48;;;;;;;4.40;2.60;;;;;;;;;;4800589;29;20141;-79
2022/06/23 13:14:19;;;;;;;4.45;2.30;;;;;;;;;;4798087;29;20149;-80
2022/06/23 13:17:00;;;;;;;3.45;2.38;;;;;;;;;;4817900;29;20391;-79
2022/06/23 13:19:31;;;;;;;4.57;2.45;;;;;;;;;;4786717;29;20320;-80
2022/06/23 13:22:18;;;;;;;;;;;;;;;;;;4788342;29;20045;-80
2022/06/23 13:24:46;;;;;;;2.75;2.33;;;;;;;;;;4821375;29;19932;-79
2022/06/23 13:27:16;;;;;;;2.53;2.13;;;;;;;;;;4803554;29;20114;-78
2022/06/23 13:30:01;;;;;;;3.42;2.15;;;;;;;;;;4805954;29;20058;-78
2022/06/23 13:32:38;;;;;;;4.68;2.00;;;;;;;;;;4818961;29;20066;-79
2022/06/23 13:35:05;;;;;;;3.20;2.15;;;;;;;;;;4798669;29;20079;-79
2022/06/23 13:37:38;;;;;;;2.63;1.90;;;;;;;;;;4818503;29;20054;-79
2022/06/23 13:40:19;;;;;;;3.17;2.10;;;;;;;;;;4815812;29;20482;-80
2022/06/23 13:42:49;;;;;;;3.20;1.90;;;;;;;;;;4812946;29;20046;-79
2022/06/23 13:45:36;;;;;;;7.05;2.40;;;;;;;;;;4798877;29;20764;-79
2022/06/23 13:48:04;;;;;;;2.78;1.80;;;;;;;;;;4811841;29;20041;-80
2022/06/23 13:50:34;;;;;;;2.20;1.80;;;;;;;;;;4821807;29;20073;-79
2022/06/23 13:53:06;;;;;;;3.80;2.13;;;;;;;;;;4817696;29;20257;-79
2022/06/23 13:55:59;;;;;;;3.20;1.80;;;;;;;;;;4813264;29;20574;-80
2022/06/23 13:58:35;;;;;;;1.88;1.70;;;;;;;;;;4796639;29;20046;-80
2022/06/23 14:01:02;;;;;;;3.13;2.00;;;;;;;;;;4817769;29;20448;-79
2022/06/23 14:03:52;;;;;;;2.88;1.73;;;;;;;;;;4805879;29;20847;-80
2022/06/23 14:06:40;;;;;;;6.03;2.08;;;;;;;;;;4802889;29;20051;-79
2022/06/23 14:09:31;;;;;;;4.50;1.95;;;;;;;;;;4794412;29;20601;-80
2022/06/23 14:12:02;;;;;;;3.83;2.10;;;;;;;;;;4784606;29;20416;-79
2022/06/23 14:14:36;;;;;;;3.10;2.00;;;;;;;;;;4815900;29;20103;-79
2022/06/23 14:17:24;;;;;;;2.17;1.80;;;;;;;;;;4795025;29;20039;-80
2022/06/23 14:20:01;;;;;;;3.33;1.73;;;;;;;;;;4807453;29;20092;-80
2022/06/23 14:22:36;;;;;;;3.47;1.80;;;;;;;;;;4814186;29;20058;-79
2022/06/23 14:25:14;;;;;;;1.90;1.70;;;;;;;;;;4799197;29;20049;-78
2022/06/23 14:27:41;;;;;;;3.78;2.00;;;;;;;;;;4796503;29;20054;-78
2022/06/23 14:30:09;;;;;;;2.13;1.92;;;;;;;;;;4800867;29;20134;-80
2022/06/23 14:32:42;;;;;;;2.15;1.98;;;;;;;;;;4817155;29;20045;-80
2022/06/23 14:35:16;;;;;;;2.17;1.73;;;;;;;;;;4807049;29;20069;-80
2022/06/23 14:37:50;;;;;;;3.40;2.35;;;;;;;;;;4795951;29;20523;-80
2022/06/23 14:40:22;;;;;;;2.72;1.90;;;;;;;;;;4813095;29;20133;-79
2022/06/23 14:43:04;;;;;;;3.75;1.80;;;;;;;;;;4814287;29;20042;-79
2022/06/23 14:45:59;;;;;;;2.28;1.65;;;;;;;;;;4813663;29;20065;-81
2022/06/23 14:48:36;;;;;;;3.63;1.75;;;;;;;;;;4796460;29;20164;-79
2022/06/23 14:51:09;;;;;;;2.78;1.80;;;;;;;;;;4805746;29;20054;-78
2022/06/23 14:53:55;;;;;;;3.67;1.58;;;;;;;;;;4790037;29;20128;-81
2022/06/23 14:56:29;;;;;;;2.67;1.63;;;;;;;;;;4799220;29;20050;-80
2022/06/23 14:59:07;;;;;;;2.38;1.95;;;;;;;;;;4800375;29;20141;-82
2022/06/23 15:01:42;;;;;;;3.60;1.67;;;;;;;;;;4804823;29;20115;-79
2022/06/23 15:04:30;;;;;;;2.85;1.60;;;;;;;;;;4816015;29;20522;-78
2022/06/23 15:07:17;;;;;;;2.28;1.55;;;;;;;;;;4813287;29;20061;-80
2022/06/23 15:10:03;;;;;;;5.35;1.67;;;;;;;;;;4819933;29;21744;-79
2022/06/23 15:12:37;;;;;;;1.83;1.67;;;;;;;;;;4802674;29;20914;-81
2022/06/23 15:15:13;;;;;;;1.97;1.70;;;;;;;;;;4803128;29;20733;-78
2022/06/23 15:17:41;;;;;;;;;;;;;;;;;;4815934;29;20780;-81
2022/06/23 15:20:09;;;;;;;2.83;1.80;;;;;;;;;;4773586;29;20035;-80
2022/06/23 15:25:38;;;;;;;4.60;2.00;;;;;;;;;;4792095;29;20038;-80
2022/06/23 15:28:09;;;;;;;1.90;1.80;;;;;;;;;;4794123;29;20084;-80
2022/06/23 15:30:45;;;;;;;3.15;1.98;;;;;;;;;;4796138;29;20054;-79
2022/06/23 15:33:34;;;;;;;2.65;1.92;;;;;;;;;;4797825;29;20061;-80
2022/06/23 15:36:05;;;;;;;4.00;2.00;;;;;;;;;;4796480;29;20049;-80